Aviation Digital Data Service (ADDS)

Output produced by METARs form (2251 UTC 15 February 2019)
found at http://www.aviationweather.gov/metar/data/
 
Forecast for: KPIH (POCATELLO , ID, US)
Text: KPIH 152147Z 1522/1618 24015G25KT 1/2SM SN FEW006 OVC014
Forecast period: 2200 to 2300 UTC 15 February 2019
Forecast type: FROM: standard forecast or significant change
Winds: from the WSW (240 degrees) at 17 MPH (15 knots; 7.7 m/s)
gusting to 29 MPH (25 knots; 12.9 m/s)
Visibility: 0.50 miles (0.80 km)
Ceiling: 1400 feet AGL
Clouds: few clouds at 600 feet AGL
overcast cloud deck at 1400 feet AGL
Weather: SN  (moderate snow)
Text: FM152300 26015KT 6SM -SN SCT025 BKN035 OVC050
Forecast period: 2300 UTC 15 February 2019 to 0100 UTC 16 February 2019
Forecast type: FROM: standard forecast or significant change
Winds: from the W (260 degrees) at 17 MPH (15 knots; 7.7 m/s)
Visibility: 6 miles (10 km)
Ceiling: 3500 feet AGL
Clouds: scattered clouds at 2500 feet AGL
broken clouds at 3500 feet AGL
overcast cloud deck at 5000 feet AGL
Weather: -SN  (light snow)
Text: FM160100 22010KT P6SM SCT040 BKN080
Forecast period: 0100 to 1800 UTC 16 February 2019
Forecast type: FROM: standard forecast or significant change
Winds: from the SW (220 degrees) at 12 MPH (10 knots; 5.1 m/s)
Visibility: 6 or more miles 10+ km)
Ceiling: 8000 feet AGL
Clouds: scattered clouds at 4000 feet AGL
broken clouds at 8000 feet AGL
Weather: no significant weather forecast for this period